Position Fahrer Laps Zeit Diff Beste Runde Fahrzeug Status Gesamt Bonuspunkte Strafpunkte
1 Dietmar Scholz 14 26:41.247 - 1:53.272 Volkswagen Golf GTI TCR Beendet 30 0 0
2 Kolja Kljaic 14 26:42.269 0:01.022 1:52.896 Audi RS 3 LMS Beendet 27,5 0 0
3 Christian Büttner 14 26:43.180 0:01.933 1:53.014 Seat Cupra TCR Beendet 25,5 0 0
4 Manuel Kwiatkowski 14 26:46.924 0:05.677 1:53.611 Audi RS 3 LMS Beendet 24 0 0
5 Marc Rottmann 14 26:48.089 0:06.842 1:53.063 Audi RS 3 LMS Beendet 23 0 0
6 Alex Krueger 14 26:53.994 0:12.747 1:53.432 Alfa Romeo Giuletta TCR Beendet 22 0 0
7 Maxi Prodöhl 14 26:56.910 0:15.663 1:53.863 Lynk & Co 03 TCR Beendet 21 0 0
8 Dirk Baedorf 14 26:57.929 0:16.682 1:53.723 Volkswagen Golf GTI TCR Beendet 20 0 0
9 Tom Knost 14 26:59.471 0:18.224 1:54.131 Volkswagen Golf GTI TCR Beendet 19 0 0
10 Stefan Findeklee 14 26:59.804 0:18.557 1:53.988 Volkswagen Golf GTI TCR Beendet 18 0 0
11 Wolfgang Beuth 14 27:03.456 0:22.209 1:53.989 Lynk & Co 03 TCR Beendet 17 0 0
12 Markus Kreß 14 27:07.493 0:26.246 1:54.061 Seat Cupra TCR Beendet 16,5 0 0
13 Tino Kerkow 14 27:07.728 0:26.481 1:53.820 Lynk & Co 03 TCR Beendet 16 0 0
14 Tim Hallmann 14 27:10.414 0:29.167 1:54.303 Volkswagen Golf GTI TCR Beendet 15,5 0 0
15 Stefan Schreiner 14 27:14.502 0:33.255 1:54.572 Volkswagen Golf GTI TCR Beendet 15 0 0
16 René Wagner 9 17:29.405 -5L 1:54.204 Lynk & Co 03 TCR DNF 0 0 0
17 Johannes Benke 1 - -13L - Audi RS 3 LMS DNF 0 0 0

Rennverlauf

Die schnellsten 5 pro Runde

Runde 1

Pos Rennpos Fahrer Zeit Diff
1 2 Christian Büttner 2:01.404 -
2 3 Kolja Kljaic 2:01.760 0:00.356
3 4 Maxi Prodöhl 2:03.345 0:01.941
4 5 Dietmar Scholz 2:03.680 0:02.276
5 6 Markus Kreß 2:04.098 0:02.694

Runde 2

Pos Rennpos Fahrer Zeit Diff
1 1 Kolja Kljaic 1:53.815 -
2 3 Maxi Prodöhl 1:54.019 0:00.204
3 5 Dirk Baedorf 1:54.135 0:00.320
4 4 Dietmar Scholz 1:54.164 0:00.349
5 2 Christian Büttner 1:54.584 0:00.769

Runde 3

Pos Rennpos Fahrer Zeit Diff
1 1 Kolja Kljaic 1:52.896 -
2 2 Christian Büttner 1:53.014 0:00.118
3 7 Marc Rottmann 1:53.063 0:00.167
4 5 Dirk Baedorf 1:53.723 0:00.827
5 6 Manuel Kwiatkowski 1:53.753 0:00.857

Runde 4

Pos Rennpos Fahrer Zeit Diff
1 1 Kolja Kljaic 1:53.276 -
2 2 Christian Büttner 1:53.394 0:00.118
3 3 Dietmar Scholz 1:53.410 0:00.134
4 7 Marc Rottmann 1:53.887 0:00.611
5 9 Tino Kerkow 1:53.912 0:00.636

Runde 5

Pos Rennpos Fahrer Zeit Diff
1 1 Kolja Kljaic 1:53.149 -
2 2 Christian Büttner 1:53.198 0:00.049
3 3 Dietmar Scholz 1:53.394 0:00.245
4 5 Manuel Kwiatkowski 1:53.660 0:00.511
5 14 Stefan Findeklee 1:54.085 0:00.936

Runde 6

Pos Rennpos Fahrer Zeit Diff
1 3 Dietmar Scholz 1:53.272 -
2 9 Alex Krueger 1:53.432 0:00.160
3 2 Christian Büttner 1:53.665 0:00.393
4 1 Kolja Kljaic 1:53.772 0:00.500
5 10 René Wagner 1:54.404 0:01.132

Runde 7

Pos Rennpos Fahrer Zeit Diff
1 3 Dietmar Scholz 1:53.407 -
2 4 Manuel Kwiatkowski 1:53.707 0:00.300
3 2 Christian Büttner 1:53.854 0:00.447
4 10 Maxi Prodöhl 1:53.863 0:00.456
5 1 Kolja Kljaic 1:53.981 0:00.574

Runde 8

Pos Rennpos Fahrer Zeit Diff
1 3 Dietmar Scholz 1:53.287 -
2 4 Manuel Kwiatkowski 1:54.086 0:00.799
3 10 Maxi Prodöhl 1:54.090 0:00.803
4 2 Christian Büttner 1:54.169 0:00.882
5 14 René Wagner 1:54.204 0:00.917

Runde 9

Pos Rennpos Fahrer Zeit Diff
1 6 Marc Rottmann 1:53.390 -
2 4 Manuel Kwiatkowski 1:53.656 0:00.266
3 2 Dietmar Scholz 1:53.747 0:00.357
4 1 Kolja Kljaic 1:53.829 0:00.439
5 11 Tom Knost 1:54.265 0:00.875

Runde 10

Pos Rennpos Fahrer Zeit Diff
1 3 Christian Büttner 1:53.593 -
2 5 Marc Rottmann 1:53.786 0:00.193
3 2 Dietmar Scholz 1:53.808 0:00.215
4 4 Manuel Kwiatkowski 1:53.825 0:00.232
5 11 Stefan Findeklee 1:53.988 0:00.395

Runde 11

Pos Rennpos Fahrer Zeit Diff
1 5 Marc Rottmann 1:53.081 -
2 3 Christian Büttner 1:53.520 0:00.439
3 2 Dietmar Scholz 1:53.602 0:00.521
4 4 Manuel Kwiatkowski 1:53.611 0:00.530
5 13 Markus Kreß 1:54.130 0:01.049

Runde 12

Pos Rennpos Fahrer Zeit Diff
1 5 Marc Rottmann 1:53.352 -
2 6 Alex Krueger 1:53.606 0:00.254
3 2 Dietmar Scholz 1:53.801 0:00.449
4 4 Manuel Kwiatkowski 1:53.978 0:00.626
5 12 Wolfgang Beuth 1:53.989 0:00.637

Runde 13

Pos Rennpos Fahrer Zeit Diff
1 5 Marc Rottmann 1:53.368 -
2 12 Wolfgang Beuth 1:54.058 0:00.690
3 11 Stefan Findeklee 1:54.122 0:00.754
4 4 Manuel Kwiatkowski 1:54.157 0:00.789
5 1 Dietmar Scholz 1:54.175 0:00.807

Runde 14

Pos Rennpos Fahrer Zeit Diff
1 5 Marc Rottmann 1:53.369 -
2 6 Alex Krueger 1:53.595 0:00.226
3 1 Dietmar Scholz 1:53.692 0:00.323
4 4 Manuel Kwiatkowski 1:54.096 0:00.727
5 2 Kolja Kljaic 1:54.481 0:01.112

SERVER

1 / 61
virtualracing.org #1 GTM
Training 1Lime Rock Park -- Uphill Chicane
0 / 81
virtualracing.org #3 FS
Training 1Lime Rock Park -- Uphill Chicane
0 / 81
virtualracing.org #4 LSM
Training 1Spa-Francorchamps Endurance
0 / 34
virtualracing.org #5 VRF1S
Training 1Zandvoort 2021
12 / 34
virtualracing.org #6 VRCS
WarmUpDonington Park National Circuit
0 / 81
virtualracing.org #P1 BTCC
QualifikationThruxton Motorsport Centre
0 / 81
virtualracing.org #P2 CA
Training 1Oulton Park International
0 / 34
virtualracing.org #P3 Mini
Training 1Brands Hatch Indy
0 / 33
virtualracing.org #P4 IR18
Training 1Grand Prix Course
2/31
virtualracing.org#4 GTC Training Standard
TrainingDaytona International Speedway - Road Course
0/31
virtualracing.org#5 GTC Training A
TrainingDaytona International Speedway - Road Course
0/24
virtualracing.org#30 ALT Training
TrainingFuji Speedway - Grand Prix Circuit 1968
0/32
virtualracing.org#33 GTC Starttest
TrainingDaytona International Speedway - Road Course